createdAt,value
2023-12-05T00:01:25.284Z,-1.50
2023-12-05T00:03:52.481Z,-1.40
2023-12-05T00:06:19.781Z,-1.40
2023-12-05T00:08:46.891Z,-1.30
2023-12-05T00:11:14.025Z,-1.30
2023-12-05T00:13:42.192Z,-1.30
2023-12-05T00:16:10.926Z,-1.20
2023-12-05T00:18:38.929Z,-1.20
2023-12-05T00:21:06.968Z,-1.30
2023-12-05T00:23:34.071Z,-1.40
2023-12-05T00:26:01.072Z,-1.40
2023-12-05T00:28:28.033Z,-1.40
2023-12-05T00:30:55.216Z,-1.40
2023-12-05T00:33:22.550Z,-1.40
2023-12-05T00:35:49.748Z,-1.50
2023-12-05T00:38:16.924Z,-1.40
2023-12-05T00:40:43.973Z,-1.40
2023-12-05T00:43:11.072Z,-1.40
2023-12-05T00:45:38.200Z,-1.40
2023-12-05T00:48:05.458Z,-1.50
2023-12-05T00:50:37.784Z,-1.50
2023-12-05T00:53:08.011Z,-1.50
2023-12-05T00:55:36.900Z,-1.50
2023-12-05T00:58:04.311Z,-1.50
2023-12-05T01:00:31.339Z,-1.50
2023-12-05T01:02:58.474Z,-1.50
2023-12-05T01:05:25.931Z,-1.50
2023-12-05T01:07:53.132Z,-1.60
2023-12-05T01:10:20.258Z,-1.60
2023-12-05T01:12:47.500Z,-1.70
2023-12-05T01:15:14.682Z,-1.60
2023-12-05T01:17:41.772Z,-1.70
2023-12-05T01:20:12.365Z,-1.70
2023-12-05T01:22:40.067Z,-1.70
2023-12-05T01:25:08.724Z,-1.70
2023-12-05T01:27:36.064Z,-1.70
2023-12-05T01:30:04.342Z,-1.80
2023-12-05T01:32:31.743Z,-1.70
2023-12-05T01:34:58.844Z,-1.70
2023-12-05T01:37:25.893Z,-1.70
2023-12-05T01:39:53.006Z,-1.60
2023-12-05T01:42:20.096Z,-1.60
2023-12-05T01:44:47.124Z,-1.60
2023-12-05T01:47:17.416Z,-1.60
2023-12-05T01:49:46.236Z,-1.60
2023-12-05T01:52:14.184Z,-1.60
2023-12-05T01:54:41.785Z,-1.60
2023-12-05T01:57:10.468Z,-1.50
2023-12-05T01:59:37.915Z,-1.50
2023-12-05T02:02:05.193Z,-1.40
2023-12-05T02:04:33.203Z,-1.50
2023-12-05T02:07:01.352Z,-1.50
2023-12-05T02:09:28.427Z,-1.60
2023-12-05T02:11:55.460Z,-1.60
2023-12-05T02:14:22.520Z,-1.50
2023-12-05T02:17:24.528Z,-1.50
2023-12-05T02:20:09.998Z,-1.40
2023-12-05T02:23:03.883Z,-1.40
2023-12-05T02:25:41.359Z,-1.30
2023-12-05T02:28:10.674Z,-1.30
2023-12-05T02:30:38.044Z,-1.30
2023-12-05T02:33:05.175Z,-1.30
2023-12-05T02:35:32.664Z,-1.30
2023-12-05T02:38:26.026Z,-1.30
2023-12-05T02:41:14.165Z,-1.20
2023-12-05T02:43:47.829Z,-1.20
2023-12-05T02:46:18.619Z,-1.10
2023-12-05T02:48:46.204Z,-1.10
2023-12-05T02:51:13.974Z,-1.00
2023-12-05T02:53:41.081Z,-1.00
2023-12-05T02:56:08.535Z,-1.00
2023-12-05T02:58:35.567Z,-0.90
2023-12-05T03:01:03.313Z,-0.90
2023-12-05T03:03:30.677Z,-0.80
2023-12-05T03:05:57.853Z,-0.80
2023-12-05T03:08:24.910Z,-0.80
2023-12-05T03:10:58.860Z,-0.80
2023-12-05T03:13:30.741Z,-0.70
2023-12-05T03:15:57.787Z,-0.60
2023-12-05T03:18:26.025Z,-0.50
2023-12-05T03:20:56.197Z,-0.50
2023-12-05T03:23:23.341Z,-0.50
2023-12-05T03:25:50.416Z,-0.40
2023-12-05T03:28:17.490Z,-0.40
2023-12-05T03:30:44.573Z,-0.40
2023-12-05T03:33:11.732Z,-0.30
2023-12-05T03:35:38.832Z,-0.20
2023-12-05T03:38:05.873Z,-0.20
2023-12-05T03:40:33.784Z,-0.20
2023-12-05T03:43:00.781Z,-0.10
2023-12-05T03:45:28.010Z,-0.10
2023-12-05T03:47:55.108Z,-0.10
2023-12-05T03:50:22.548Z,-0.10
2023-12-05T03:52:49.661Z,0.00
2023-12-05T03:55:16.733Z,0.00
2023-12-05T03:57:43.783Z,0.00
2023-12-05T04:00:11.465Z,0.10
2023-12-05T04:02:43.682Z,0.10
2023-12-05T04:05:11.865Z,0.10
2023-12-05T04:07:39.003Z,0.10
2023-12-05T04:10:06.780Z,0.10
2023-12-05T04:12:33.900Z,0.10
2023-12-05T04:15:01.045Z,0.10
2023-12-05T04:17:28.287Z,0.00
2023-12-05T04:19:55.275Z,0.00
2023-12-05T04:22:22.357Z,0.00
2023-12-05T04:24:49.573Z,0.10
2023-12-05T04:27:16.839Z,0.10
2023-12-05T04:29:44.157Z,0.00
2023-12-05T04:32:11.730Z,0.00
2023-12-05T04:34:43.048Z,0.00
2023-12-05T04:37:10.285Z,0.00
2023-12-05T04:39:37.346Z,0.00
2023-12-05T04:42:05.572Z,0.10
2023-12-05T04:44:33.197Z,0.10
2023-12-05T04:47:01.072Z,0.10
2023-12-05T04:49:28.180Z,0.10
2023-12-05T04:51:55.510Z,0.10
2023-12-05T04:54:22.800Z,0.20
2023-12-05T04:56:49.923Z,0.10
2023-12-05T04:59:17.070Z,0.10
2023-12-05T05:01:44.894Z,0.10
2023-12-05T05:04:12.176Z,0.10
2023-12-05T05:06:39.449Z,0.10
2023-12-05T05:09:06.690Z,0.00
2023-12-05T05:11:34.282Z,0.00
2023-12-05T05:14:02.331Z,0.00
2023-12-05T05:16:30.272Z,0.00
2023-12-05T05:18:57.606Z,0.00
2023-12-05T05:21:25.180Z,0.10
2023-12-05T05:23:52.472Z,0.10
2023-12-05T05:26:19.870Z,0.30
2023-12-05T05:28:46.935Z,0.30
2023-12-05T05:31:14.010Z,0.30
2023-12-05T05:33:41.192Z,0.40
2023-12-05T05:36:09.184Z,0.50
2023-12-05T05:38:36.283Z,0.50
2023-12-05T05:41:07.900Z,0.50
2023-12-05T05:43:35.705Z,0.50
2023-12-05T05:46:03.339Z,0.50
2023-12-05T05:48:30.603Z,0.50
2023-12-05T05:50:57.798Z,0.40
2023-12-05T05:53:25.048Z,0.50
2023-12-05T05:55:52.127Z,0.50
2023-12-05T05:58:19.245Z,0.50
2023-12-05T06:00:47.044Z,0.50
2023-12-05T06:03:14.720Z,0.50
2023-12-05T06:05:41.913Z,0.40
2023-12-05T06:08:09.359Z,0.30
2023-12-05T06:10:36.972Z,0.30
2023-12-05T06:13:04.136Z,0.30
2023-12-05T06:15:32.195Z,0.10
2023-12-05T06:17:59.335Z,0.00
2023-12-05T06:20:26.517Z,0.00
2023-12-05T06:22:53.647Z,0.00
2023-12-05T06:25:20.835Z,-0.10
2023-12-05T06:27:48.062Z,-0.10
2023-12-05T06:30:21.606Z,-0.20
2023-12-05T06:32:52.472Z,-0.20
2023-12-05T06:35:19.663Z,-0.20
2023-12-05T06:37:46.965Z,-0.20
2023-12-05T06:40:14.289Z,-0.30
2023-12-05T06:42:42.179Z,-0.20
2023-12-05T06:45:10.174Z,-0.30
2023-12-05T06:47:37.666Z,-0.30
2023-12-05T06:50:11.343Z,-0.30
2023-12-05T06:52:41.119Z,-0.30
2023-12-05T06:55:09.303Z,-0.30
2023-12-05T06:57:36.464Z,-0.30
2023-12-05T07:00:05.131Z,-0.30
2023-12-05T07:02:32.483Z,-0.30
2023-12-05T07:05:00.287Z,-0.30
2023-12-05T07:07:27.789Z,-0.30
2023-12-05T07:09:54.877Z,-0.40
2023-12-05T07:12:22.373Z,-0.40
2023-12-05T07:14:49.528Z,-0.40
2023-12-05T07:17:16.685Z,-0.40
2023-12-05T07:19:43.817Z,-0.40
2023-12-05T07:22:11.265Z,-0.40
2023-12-05T07:24:40.731Z,-0.40
2023-12-05T07:27:08.345Z,-0.40
2023-12-05T07:29:35.615Z,-0.30
2023-12-05T07:32:02.774Z,-0.20
2023-12-05T07:34:29.971Z,-0.20
2023-12-05T07:36:57.168Z,-0.20
2023-12-05T07:39:26.726Z,-0.10
2023-12-05T07:41:53.987Z,-0.10
2023-12-05T07:44:21.148Z,0.00
2023-12-05T07:46:48.307Z,0.00
2023-12-05T07:49:16.047Z,0.00
2023-12-05T07:51:43.341Z,0.10
2023-12-05T07:54:10.557Z,0.20
2023-12-05T07:56:37.697Z,0.30
2023-12-05T07:59:04.837Z,0.40
2023-12-05T08:01:32.246Z,0.40
2023-12-05T08:04:02.736Z,0.50
2023-12-05T08:06:29.808Z,0.50
2023-12-05T08:08:57.661Z,0.60
2023-12-05T08:11:24.687Z,0.70
2023-12-05T08:13:51.851Z,0.80
2023-12-05T08:16:19.023Z,1.00
2023-12-05T08:18:46.325Z,1.10
2023-12-05T08:21:13.697Z,1.20
2023-12-05T08:23:40.708Z,1.30
2023-12-05T08:26:08.368Z,1.50
2023-12-05T08:28:35.883Z,1.50
2023-12-05T08:31:03.570Z,1.70
2023-12-05T08:33:30.912Z,1.80
2023-12-05T08:35:58.163Z,1.90
2023-12-05T08:38:25.620Z,1.90
2023-12-05T08:40:52.969Z,1.90
2023-12-05T08:43:20.065Z,2.00
2023-12-05T08:45:47.330Z,2.00
2023-12-05T08:48:14.521Z,1.90
2023-12-05T08:50:43.203Z,2.10
2023-12-05T08:53:10.438Z,2.20
2023-12-05T08:55:37.659Z,2.30
2023-12-05T08:58:05.369Z,2.30
2023-12-05T09:00:33.432Z,2.40
2023-12-05T09:03:01.432Z,2.40
2023-12-05T09:05:29.434Z,2.50
2023-12-05T09:07:56.743Z,2.60
2023-12-05T09:10:24.063Z,2.80
2023-12-05T09:12:51.510Z,2.90
2023-12-05T09:15:18.858Z,3.10
2023-12-05T09:17:46.175Z,3.20
2023-12-05T09:20:13.552Z,3.20
2023-12-05T09:22:41.284Z,3.40
2023-12-05T09:25:08.872Z,3.40
2023-12-05T09:27:36.374Z,3.30
2023-12-05T09:30:04.243Z,3.50
2023-12-05T09:32:32.329Z,3.60
2023-12-05T09:35:00.611Z,3.80
2023-12-05T09:37:28.289Z,3.80
2023-12-05T09:39:55.473Z,4.10
2023-12-05T09:42:26.646Z,4.30
2023-12-05T09:44:55.955Z,4.40
2023-12-05T09:47:23.248Z,4.40
2023-12-05T09:49:50.964Z,4.50
2023-12-05T09:52:19.153Z,4.60
2023-12-05T09:54:48.631Z,4.60
2023-12-05T09:57:15.789Z,4.80
2023-12-05T09:59:43.165Z,4.70
2023-12-05T10:02:12.389Z,4.70
2023-12-05T10:04:45.899Z,4.50
2023-12-05T10:07:14.206Z,4.50
2023-12-05T10:09:43.876Z,4.40
2023-12-05T10:12:13.175Z,4.10
2023-12-05T10:14:41.880Z,4.00
2023-12-05T10:17:09.434Z,4.10
2023-12-05T10:19:37.887Z,4.10
2023-12-05T10:22:05.789Z,4.20
2023-12-05T10:24:49.629Z,4.40
2023-12-05T10:27:17.946Z,4.50
2023-12-05T10:29:45.412Z,4.70
2023-12-05T10:32:14.694Z,4.90
2023-12-05T10:35:02.898Z,4.90
2023-12-05T10:37:31.324Z,5.10
2023-12-05T10:39:59.904Z,5.10
2023-12-05T10:42:31.281Z,5.30
2023-12-05T10:44:58.629Z,5.30
2023-12-05T10:47:28.421Z,5.60
2023-12-05T10:49:56.194Z,5.80
2023-12-05T10:52:23.595Z,6.00
2023-12-05T10:54:58.832Z,5.90
2023-12-05T10:57:35.365Z,6.10
2023-12-05T11:00:07.703Z,6.20
2023-12-05T11:02:38.395Z,6.10
2023-12-05T11:05:07.604Z,6.30
2023-12-05T11:07:34.707Z,6.30
2023-12-05T11:10:02.045Z,6.00
2023-12-05T11:12:29.943Z,5.80
2023-12-05T11:14:59.912Z,5.70
2023-12-05T11:17:33.039Z,5.60
2023-12-05T11:20:25.629Z,5.60
2023-12-05T11:23:16.636Z,5.60
2023-12-05T11:26:14.332Z,5.50
2023-12-05T11:28:53.484Z,5.60
2023-12-05T11:31:44.601Z,5.60
2023-12-05T11:34:36.572Z,5.70
2023-12-05T11:37:16.726Z,6.00
2023-12-05T11:39:44.332Z,6.20
2023-12-05T11:42:13.658Z,6.20
2023-12-05T11:44:41.696Z,6.20
2023-12-05T11:47:18.053Z,6.30
2023-12-05T11:50:04.689Z,6.10
2023-12-05T11:52:40.649Z,5.90
2023-12-05T11:55:10.217Z,5.90
2023-12-05T11:57:37.692Z,6.20
2023-12-05T12:00:05.746Z,6.40
2023-12-05T12:02:44.189Z,6.70
2023-12-05T12:05:13.555Z,7.00
2023-12-05T12:07:51.480Z,7.40
2023-12-05T12:10:19.325Z,7.80
2023-12-05T12:12:47.496Z,8.10
2023-12-05T12:15:22.666Z,8.50
2023-12-05T12:17:50.376Z,8.70
2023-12-05T12:20:18.973Z,8.80
2023-12-05T12:22:50.831Z,8.60
2023-12-05T12:25:19.263Z,8.70
2023-12-05T12:27:46.621Z,9.50
2023-12-05T12:30:16.715Z,10.20
2023-12-05T12:32:59.137Z,10.30
2023-12-05T12:35:29.449Z,10.10
2023-12-05T12:37:57.577Z,10.10
2023-12-05T12:40:25.763Z,10.20
2023-12-05T12:42:56.747Z,10.10
2023-12-05T12:45:26.549Z,10.10
2023-12-05T12:47:54.456Z,10.00
2023-12-05T12:50:21.739Z,10.60
2023-12-05T12:52:50.169Z,11.00
2023-12-05T12:55:20.659Z,11.50
2023-12-05T12:57:51.525Z,12.40
2023-12-05T13:00:31.950Z,13.00
2023-12-05T13:03:04.867Z,13.90
2023-12-05T13:05:33.919Z,14.20
2023-12-05T13:08:01.623Z,13.70
2023-12-05T13:10:29.558Z,13.80
2023-12-05T13:13:03.520Z,14.10
2023-12-05T13:15:32.015Z,14.50
2023-12-05T13:18:08.346Z,14.50
2023-12-05T13:20:56.334Z,14.40
2023-12-05T13:23:24.023Z,14.00
2023-12-05T13:25:51.557Z,13.10
2023-12-05T13:28:21.913Z,12.10
2023-12-05T13:30:49.207Z,11.20
2023-12-05T13:33:17.191Z,10.60
2023-12-05T13:35:45.064Z,10.20
2023-12-05T13:38:12.978Z,9.50
2023-12-05T13:40:40.107Z,9.10
2023-12-05T13:43:08.081Z,9.50
2023-12-05T13:45:35.466Z,10.60
2023-12-05T13:48:03.245Z,10.70
2023-12-05T13:50:30.478Z,11.80
2023-12-05T13:52:58.006Z,12.50
2023-12-05T13:55:26.131Z,13.10
2023-12-05T13:57:54.129Z,12.90
2023-12-05T14:00:21.810Z,12.40
2023-12-05T14:02:49.518Z,11.20
2023-12-05T14:05:16.965Z,10.30
2023-12-05T14:07:44.604Z,9.50
2023-12-05T14:10:12.557Z,8.40
2023-12-05T14:12:39.711Z,7.80
2023-12-05T14:15:07.888Z,7.20
2023-12-05T14:17:35.453Z,6.80
2023-12-05T14:20:07.814Z,6.50
2023-12-05T14:22:36.048Z,6.40
2023-12-05T14:25:08.261Z,6.20
2023-12-05T14:27:37.054Z,5.90
2023-12-05T14:30:06.024Z,5.70
2023-12-05T14:32:33.454Z,5.50
2023-12-05T14:35:01.176Z,5.40
2023-12-05T14:37:29.034Z,5.30
2023-12-05T14:39:57.384Z,5.20
2023-12-05T14:42:25.120Z,5.10
2023-12-05T14:44:52.419Z,5.00
2023-12-05T14:47:19.770Z,4.90
2023-12-05T14:49:46.954Z,4.90
2023-12-05T14:52:14.156Z,4.70
2023-12-05T14:54:41.750Z,4.70
2023-12-05T14:57:08.873Z,4.60
2023-12-05T14:59:36.003Z,4.60
2023-12-05T15:02:03.239Z,4.60
2023-12-05T15:04:30.625Z,4.50
2023-12-05T15:06:57.966Z,4.50
2023-12-05T15:09:26.194Z,4.50
2023-12-05T15:11:53.827Z,4.40
2023-12-05T15:14:20.950Z,4.40
2023-12-05T15:16:48.511Z,4.30
2023-12-05T15:19:16.138Z,4.30
2023-12-05T15:21:43.407Z,4.30
2023-12-05T15:24:10.561Z,4.30
2023-12-05T15:26:37.705Z,4.20
2023-12-05T15:29:04.878Z,4.20
2023-12-05T15:31:31.983Z,4.20
2023-12-05T15:33:59.593Z,4.20
2023-12-05T15:36:26.835Z,4.10
2023-12-05T15:38:54.263Z,4.10
2023-12-05T15:41:21.975Z,4.10
2023-12-05T15:43:49.156Z,4.10
2023-12-05T15:46:23.363Z,4.10
2023-12-05T15:48:51.682Z,4.10
2023-12-05T15:51:19.176Z,4.10
2023-12-05T15:53:46.748Z,4.00
2023-12-05T15:56:14.659Z,4.00
2023-12-05T15:58:42.339Z,4.00
2023-12-05T16:01:09.682Z,3.80
2023-12-05T16:03:37.105Z,3.80
2023-12-05T16:06:04.492Z,3.70
2023-12-05T16:08:31.570Z,3.60
2023-12-05T16:10:58.686Z,3.50
2023-12-05T16:13:26.040Z,3.60
2023-12-05T16:15:53.304Z,3.60
2023-12-05T16:18:20.654Z,3.70
2023-12-05T16:20:49.742Z,3.70
2023-12-05T16:23:16.883Z,3.70
2023-12-05T16:25:44.020Z,3.80
2023-12-05T16:28:11.237Z,3.80
2023-12-05T16:30:38.349Z,3.80
2023-12-05T16:33:05.724Z,3.90
2023-12-05T16:35:33.306Z,3.90
2023-12-05T16:38:00.495Z,4.00
2023-12-05T16:40:27.622Z,4.00
2023-12-05T16:42:54.745Z,4.00
2023-12-05T16:45:25.961Z,4.00
2023-12-05T16:47:59.294Z,4.00
2023-12-05T16:50:29.728Z,4.00
2023-12-05T16:52:57.303Z,3.90
2023-12-05T16:55:24.765Z,3.90
2023-12-05T16:57:52.415Z,3.90
2023-12-05T17:00:20.226Z,3.90
2023-12-05T17:02:47.399Z,3.90
2023-12-05T17:05:15.513Z,3.90
2023-12-05T17:07:44.031Z,3.90
2023-12-05T17:10:12.030Z,3.90
2023-12-05T17:12:39.361Z,3.90
2023-12-05T17:15:09.419Z,3.80
2023-12-05T17:17:36.764Z,3.80
2023-12-05T17:20:04.696Z,3.90
2023-12-05T17:22:32.910Z,3.90
2023-12-05T17:25:00.735Z,3.80
2023-12-05T17:27:28.067Z,3.90
2023-12-05T17:29:56.767Z,3.90
2023-12-05T17:32:28.090Z,3.90
2023-12-05T17:34:57.238Z,3.90
2023-12-05T17:37:25.638Z,3.90
2023-12-05T17:39:54.051Z,3.90
2023-12-05T17:42:21.079Z,3.90
2023-12-05T17:44:52.481Z,3.90
2023-12-05T17:47:21.068Z,3.90
2023-12-05T17:49:49.709Z,3.80
2023-12-05T17:52:16.818Z,3.80
2023-12-05T17:54:45.119Z,3.70
2023-12-05T17:57:12.242Z,3.70
2023-12-05T17:59:39.544Z,3.80
2023-12-05T18:02:07.113Z,3.80
2023-12-05T18:04:35.246Z,3.80
2023-12-05T18:07:50.316Z,3.80
2023-12-05T18:09:52.212Z,3.70
2023-12-05T18:12:20.736Z,3.70
2023-12-05T18:14:48.086Z,3.60
2023-12-05T18:17:15.345Z,3.60
2023-12-05T18:19:48.513Z,3.70
2023-12-05T18:22:18.314Z,3.70
2023-12-05T18:24:45.401Z,3.70
2023-12-05T18:27:15.529Z,3.70
2023-12-05T18:29:45.346Z,3.70
2023-12-05T18:32:12.857Z,3.60
2023-12-05T18:34:40.841Z,3.60
2023-12-05T18:37:08.344Z,3.70
2023-12-05T18:39:35.677Z,3.60
2023-12-05T18:42:04.145Z,3.60
2023-12-05T18:44:31.484Z,3.60
2023-12-05T18:46:58.522Z,3.60
2023-12-05T18:49:26.197Z,3.60
2023-12-05T18:51:54.951Z,3.50
2023-12-05T18:54:23.062Z,3.60
2023-12-05T18:56:50.901Z,3.60
2023-12-05T18:59:18.049Z,3.60
2023-12-05T19:01:46.056Z,3.50
2023-12-05T19:04:13.392Z,3.50
2023-12-05T19:06:40.476Z,3.40
2023-12-05T19:09:08.425Z,3.40
2023-12-05T19:11:35.606Z,3.40
2023-12-05T19:14:03.561Z,3.40
2023-12-05T19:16:32.903Z,3.30
2023-12-05T19:19:02.044Z,3.30
2023-12-05T19:21:30.609Z,3.30
2023-12-05T19:24:00.142Z,3.30
2023-12-05T19:26:28.721Z,3.30
2023-12-05T19:28:58.429Z,3.40
2023-12-05T19:31:29.551Z,3.40
2023-12-05T19:33:57.304Z,3.40
2023-12-05T19:36:24.874Z,3.40
2023-12-05T19:38:53.683Z,3.40
2023-12-05T19:41:20.791Z,3.40
2023-12-05T19:43:49.000Z,3.40
2023-12-05T19:46:16.478Z,3.40
2023-12-05T19:48:45.171Z,3.40
2023-12-05T19:51:12.864Z,3.40
2023-12-05T19:53:40.173Z,3.40
2023-12-05T19:56:08.196Z,3.40
2023-12-05T19:58:36.852Z,3.40
2023-12-05T20:01:04.478Z,3.40
2023-12-05T20:03:32.127Z,3.50
2023-12-05T20:06:00.462Z,3.50
2023-12-05T20:08:28.182Z,3.50
2023-12-05T20:10:55.420Z,3.40
2023-12-05T20:13:23.659Z,3.40
2023-12-05T20:15:51.040Z,3.40
2023-12-05T20:18:18.388Z,3.40
2023-12-05T20:20:46.105Z,3.40
2023-12-05T20:23:13.225Z,3.40
2023-12-05T20:25:40.484Z,3.30
2023-12-05T20:28:07.587Z,3.40
2023-12-05T20:30:35.092Z,3.40
2023-12-05T20:33:03.982Z,3.40
2023-12-05T20:35:32.219Z,3.40
2023-12-05T20:37:59.292Z,3.40
2023-12-05T20:40:26.502Z,3.40
2023-12-05T20:42:54.144Z,3.50
2023-12-05T20:45:21.344Z,3.50
2023-12-05T20:47:48.623Z,3.50
2023-12-05T20:50:15.788Z,3.50
2023-12-05T20:52:43.759Z,3.40
2023-12-05T20:55:10.939Z,3.40
2023-12-05T20:57:38.121Z,3.40
2023-12-05T21:00:06.541Z,3.40
2023-12-05T21:02:34.945Z,3.50
2023-12-05T21:05:02.417Z,3.50
2023-12-05T21:07:31.309Z,3.50
2023-12-05T21:09:59.481Z,3.50
2023-12-05T21:12:26.785Z,3.50
2023-12-05T21:14:53.875Z,3.50
2023-12-05T21:17:21.435Z,3.50
2023-12-05T21:19:48.725Z,3.50
2023-12-05T21:22:16.179Z,3.50
2023-12-05T21:24:43.389Z,3.40
2023-12-05T21:27:10.618Z,3.40
2023-12-05T21:29:37.845Z,3.40
2023-12-05T21:32:05.410Z,3.40
2023-12-05T21:34:33.344Z,3.40
2023-12-05T21:37:00.641Z,3.40
2023-12-05T21:39:27.772Z,3.40
2023-12-05T21:41:55.609Z,3.50
2023-12-05T21:44:22.833Z,3.40
2023-12-05T21:46:50.192Z,3.40
2023-12-05T21:49:17.678Z,3.40
2023-12-05T21:51:44.821Z,3.40
2023-12-05T21:54:11.944Z,3.40
2023-12-05T21:56:39.026Z,3.50
2023-12-05T21:59:06.146Z,3.50
2023-12-05T22:01:34.507Z,3.40
2023-12-05T22:04:01.884Z,3.40
2023-12-05T22:06:29.349Z,3.40
2023-12-05T22:08:56.392Z,3.30
2023-12-05T22:11:23.876Z,3.30
2023-12-05T22:13:51.216Z,3.30
2023-12-05T22:16:19.130Z,3.30
2023-12-05T22:18:47.416Z,3.40
2023-12-05T22:21:14.663Z,3.30
2023-12-05T22:23:42.216Z,3.40
2023-12-05T22:26:10.230Z,3.30
2023-12-05T22:28:37.555Z,3.30
2023-12-05T22:31:05.854Z,3.40
2023-12-05T22:33:33.265Z,3.30
2023-12-05T22:36:01.343Z,3.30
2023-12-05T22:38:28.423Z,3.30
2023-12-05T22:40:55.915Z,3.30
2023-12-05T22:43:23.195Z,3.30
2023-12-05T22:45:50.535Z,3.20
2023-12-05T22:48:18.399Z,3.20
2023-12-05T22:50:46.234Z,3.20
2023-12-05T22:53:13.291Z,3.20
2023-12-05T22:55:40.467Z,3.20
2023-12-05T22:58:07.722Z,3.20
2023-12-05T23:00:35.187Z,3.20
2023-12-05T23:03:02.600Z,3.20
2023-12-05T23:05:30.465Z,3.20
2023-12-05T23:07:57.865Z,3.10
2023-12-05T23:10:25.406Z,3.10
2023-12-05T23:12:53.502Z,3.00
2023-12-05T23:15:20.584Z,3.00
2023-12-05T23:17:47.886Z,3.00
2023-12-05T23:20:15.449Z,3.00
2023-12-05T23:22:42.795Z,2.90
2023-12-05T23:25:11.276Z,2.90
2023-12-05T23:27:38.480Z,2.90
2023-12-05T23:30:06.682Z,2.80
2023-12-05T23:32:34.516Z,2.90
2023-12-05T23:35:02.334Z,2.90
2023-12-05T23:37:30.199Z,2.90
2023-12-05T23:39:57.635Z,2.80
2023-12-05T23:42:25.181Z,2.80
2023-12-05T23:44:52.304Z,2.70
2023-12-05T23:47:22.862Z,2.70
2023-12-05T23:49:50.965Z,2.70
2023-12-05T23:52:18.149Z,2.70
2023-12-05T23:54:46.519Z,2.70
2023-12-05T23:57:14.524Z,2.60
2023-12-05T23:59:41.736Z,2.60
